Latest Weather Observations for Low Rocky Point

IDT60801

Issued at 6:01 am EST Monday 3 August 2015 (issued every 30 minutes, with the page automatically refreshed every 10 minutes)

About weather observations | Map of weather stations | Latest weather observations for TAS | Other Formats
Station Details ID: 097080 Name: LOW ROCKY POINT Lat: -42.98 Lon: 145.50 Height: 34.0 m
Data from the previous 72 hours. | See also: Recent months at Low Rocky Point
Date/Time
EST
Temp
°C
App
Temp
°C
Dew
Point
Rel
Hum
%
Delta-T
°C
Wind Press
QNH
hPa
Press
MSL
hPa
Rain
since 9 am
mm
Dir
 
Spd
km/h
Gust
km/h
Spd
kts
Gust
kts
03/06:00am 5.1 -6.6 0.9 74 1.7 WSW 52 72 28 39 999.6 999.6 12.2
03/05:44am 4.9 -5.0 1.4 78 1.4 WSW 43 69 23 37 999.3 999.3 12.2
03/05:30am 4.4 -5.6 1.3 80 1.2 WSW 43 59 23 32 998.9 998.9 12.2
03/05:14am 4.0 -4.4 1.4 83 1.0 WSW 35 54 19 29 998.8 998.8 12.2
03/05:00am 3.7 -6.0 0.7 81 1.2 W 41 54 22 29 998.9 999.0 12.2
03/04:47am 3.5 -6.6 0.6 81 1.1 SW 43 61 23 33 998.6 998.6 12.0
03/04:36am 3.8 -6.3 0.5 79 1.3 WSW 43 59 23 32 998.4 998.4 11.8
03/04:30am 4.6 -6.0 1.1 78 1.4 WSW 46 65 25 35 998.3 998.3 11.8
03/04:00am 4.2 -5.4 0.9 79 1.3 WSW 41 61 22 33 997.6 997.7 11.6
03/03:31am 5.0 -6.4 0.6 73 1.7 W 50 69 27 37 997.0 997.0 11.4
03/03:30am 5.2 -6.1 1.0 74 1.6 W 50 67 27 36 997.0 997.0 11.4
03/03:00am 4.8 -6.1 1.6 80 1.3 WSW 48 69 26 37 996.8 996.9 11.4
03/02:30am 5.5 -6.1 1.6 76 1.6 WSW 52 70 28 38 996.4 996.4 11.4
03/02:02am 4.7 -6.5 1.6 80 1.2 WSW 50 70 27 38 996.4 996.4 11.4
03/02:00am 4.8 -6.1 1.6 80 1.3 WSW 48 65 26 35 996.5 996.6 11.4
03/01:42am 5.2 -8.1 1.5 77 1.5 W 61 83 33 45 996.1 996.1 11.4
03/01:39am 6.1 -7.1 2.6 78 1.4 W 61 82 33 44 995.8 995.8 11.4
03/01:33am 5.8 -5.7 2.3 78 1.4 W 52 72 28 39 995.8 995.8 11.4
03/01:30am 6.3 -4.7 3.1 80 1.3 W 50 61 27 33 995.6 995.6 11.4
03/01:02am 5.7 -3.5 3.4 85 1.0 WNW 41 63 22 34 995.3 995.3 11.4
03/01:00am 5.5 -3.4 3.2 85 1.0 WNW 39 50 21 27 995.3 995.4 11.4
03/12:53am 5.0 -3.5 2.9 86 0.9 WNW 37 44 20 24 995.4 995.4 11.4
03/12:30am 4.4 -4.3 2.1 85 0.9 W 37 46 20 25 995.7 995.7 11.4
03/12:18am 4.1 -7.1 1.6 84 1.0 WSW 50 69 27 37 995.6 995.6 11.4
03/12:01am 5.7 -7.2 2.0 77 1.5 W 59 83 32 45 995.5 995.5 11.4
03/12:00am 6.5 -5.8 2.9 78 1.5 W 57 74 31 40 995.4 995.5 11.2
 
Date/Time
EST
Temp
°C
App
Temp
°C
Dew
Point
Rel
Hum
%
Delta-T
°C
Wind Press
QNH
hPa
Press
MSL
hPa
Rain
since 9 am
mm
Dir
 
Spd
km/h
Gust
km/h
Spd
kts
Gust
kts
02/11:56pm 6.3 -5.9 2.9 79 1.4 W 56 74 30 40 995.2 995.2 11.2
02/11:30pm 5.5 -4.8 2.8 83 1.1 W 46 59 25 32 995.2 995.2 11.2
02/11:00pm 5.3 -6.1 2.7 83 1.1 W 52 74 28 40 995.0 995.1 11.2
02/10:35pm 5.6 -5.3 3.8 88 0.8 W 50 70 27 38 994.4 994.4 11.2
02/10:30pm 5.3 -4.8 3.6 89 0.7 W 46 59 25 32 994.3 994.3 11.2
02/10:14pm 5.0 -7.0 3.5 90 0.6 W 56 76 30 41 994.2 994.2 11.2
02/10:09pm 4.6 -9.3 2.9 89 0.7 W 65 83 35 45 994.5 994.5 11.2
02/10:00pm 4.8 -10.8 3.0 88 0.7 W 74 95 40 51 994.6 994.7 11.0
02/09:35pm 5.6 -8.1 3.6 87 0.8 WNW 65 83 35 45 994.1 994.1 10.8
02/09:30pm 5.6 -8.9 3.6 87 0.8 WNW 69 83 37 45 993.8 993.8 10.8
02/09:13pm 6.0 -6.0 4.5 90 0.6 WNW 57 82 31 44 993.7 993.7 10.6
02/09:00pm 5.1 -6.1 3.8 91 0.6 WNW 52 65 28 35 994.2 994.3 10.6
02/08:30pm 4.4 -8.8 2.6 88 0.7 WNW 61 76 33 41 994.5 994.5 9.8
02/08:21pm 5.4 -6.6 3.6 88 0.8 WNW 56 74 30 40 994.1 994.1 9.4
02/08:14pm 5.6 -7.0 3.8 88 0.8 WNW 59 72 32 39 994.4 994.4 9.4
02/08:00pm 5.6 -9.6 3.1 84 1.0 WNW 72 93 39 50 994.2 994.3 9.2
02/07:30pm 5.5 -8.4 2.7 82 1.1 WNW 65 89 35 48 994.8 994.8 9.0
02/07:12pm 6.8 -6.2 3.6 80 1.4 WNW 61 82 33 44 994.0 994.0 9.0
02/07:00pm 6.1 -5.3 2.9 80 1.3 WNW 52 67 28 36 994.0 994.1 8.8
02/06:47pm 4.9 -5.6 1.2 77 1.5 WNW 46 65 25 35 994.5 994.5 8.2
02/06:30pm 7.3 -4.8 3.4 76 1.7 WNW 56 67 30 36 994.5 994.5 7.4
02/06:11pm 7.1 -5.6 3.3 77 1.6 NW 59 78 32 42 994.5 994.5 7.4
02/06:00pm 7.3 -6.1 3.2 75 1.8 NW 63 80 34 43 994.3 994.4 7.4
02/05:54pm 7.0 -5.1 3.3 77 1.6 NW 56 76 30 41 994.5 994.5 7.4
02/05:30pm 7.1 -5.2 3.2 76 1.6 WNW 57 72 31 39 995.0 995.0 7.4
02/05:00pm 6.9 -6.1 3.3 78 1.5 WNW 61 74 33 40 995.1 995.2 7.4
02/04:30pm 6.2 -6.9 3.2 81 1.3 WNW 61 80 33 43 995.6 995.6 7.4
02/04:20pm 5.8 -6.6 2.4 79 1.4 WNW 57 78 31 42 995.5 995.5 7.2
02/04:18pm 5.6 -5.9 2.1 78 1.4 WNW 52 72 28 39 995.3 995.3 7.2
02/04:00pm 5.7 -6.6 2.2 78 1.4 WNW 56 70 30 38 995.5 995.6 7.2
02/03:57pm 5.1 -7.5 1.4 77 1.5 WNW 57 72 31 39 995.4 995.4 7.2
02/03:47pm 4.9 -7.8 0.9 75 1.6 WNW 57 96 31 52 995.8 995.8 7.0
02/03:46pm 5.0 -7.5 0.6 73 1.7 WNW 56 96 30 52 995.6 995.6 7.0
02/03:45pm 6.4 -5.5 2.1 74 1.8 WNW 54 96 29 52 995.1 995.1 6.8
02/03:43pm 6.8 -3.9 2.5 74 1.8 WNW 48 69 26 37 995.7 995.7 6.8
02/03:30pm 7.8 -4.0 2.5 69 2.2 WNW 54 65 29 35 995.4 995.4 6.6
02/03:00pm 8.6 -2.6 4.0 73 2.0 WNW 52 65 28 35 995.6 995.7 6.6
02/02:30pm 7.7 -2.8 3.4 74 1.8 WNW 48 57 26 31 996.0 996.0 6.6
02/02:00pm 7.4 -2.2 3.6 77 1.6 W 43 59 23 32 996.2 996.3 6.6
02/01:30pm 6.9 -4.2 4.4 84 1.1 W 52 65 28 35 996.6 996.6 6.6
02/01:04pm 5.2 -6.6 2.7 84 1.0 WNW 54 74 29 40 996.9 996.9 6.4
02/01:03pm 5.4 -6.4 2.8 83 1.1 WNW 54 74 29 40 996.8 996.8 6.2
02/01:00pm 7.0 -3.8 4.3 83 1.2 WNW 50 72 27 39 996.3 996.4 6.2
02/12:30pm 7.0 -2.8 5.2 88 0.8 W 46 56 25 30 996.0 996.0 6.2
02/12:00pm 5.7 -7.1 4.5 92 0.5 WNW 61 76 33 41 996.5 996.6 6.0
02/11:30am 5.4 -9.5 4.4 93 0.4 W 72 93 39 50 997.0 997.0 6.0
02/11:00am 6.4 -6.2 5.7 95 0.3 W 61 89 33 48 996.4 996.5 5.4
02/10:55am 7.4 -3.2 6.8 96 0.3 W 52 76 28 41 995.9 995.9 5.0
02/10:53am 7.2 -3.5 6.6 96 0.3 WNW 52 76 28 41 995.7 995.7 5.0
02/10:30am 7.2 -1.4 6.6 96 0.3 WNW 41 54 22 29 995.4 995.4 4.0
02/10:15am 6.8 -4.0 6.2 96 0.3 WNW 52 69 28 37 995.5 995.5 3.6
02/10:00am 6.7 -5.8 6.0 95 0.3 W 61 82 33 44 995.4 995.5 2.6
02/09:58am 6.6 -6.0 5.7 94 0.4 W 61 82 33 44 995.3 995.3 2.6
02/09:30am 7.7 -6.3 6.8 94 0.4 WNW 70 91 38 49 995.4 995.4 1.8
02/09:01am 9.8 -3.7 8.4 91 0.7 NW 69 87 37 47 995.0 995.0 0.0
02/09:00am 9.8 -3.9 8.4 91 0.7 NW 70 87 38 47 995.0 995.1 8.6
02/08:30am 8.5 -5.8 7.3 92 0.6 NW 72 100 39 54 995.6 995.6 8.6
02/08:00am 8.8 -4.1 7.6 92 0.6 NW 65 91 35 49 996.2 996.3 7.6
02/07:36am 9.4 -4.7 8.0 91 0.7 NW 72 91 39 49 996.6 996.6 6.0
02/07:30am 9.5 -4.6 8.1 91 0.7 NW 72 87 39 47 996.7 996.7 6.0
02/07:08am 9.4 -4.2 7.7 89 0.8 NW 69 104 37 56 996.7 996.7 5.6
02/07:03am 9.4 -3.5 7.7 89 0.8 NW 65 83 35 45 996.9 996.9 5.4
02/07:00am 9.5 -3.4 7.8 89 0.8 NW 65 82 35 44 997.0 997.1 5.4
02/06:30am 9.0 -5.4 6.8 86 1.0 NW 72 96 39 52 997.6 997.6 5.0
02/06:00am 9.9 -4.3 7.7 86 1.1 NW 72 91 39 49 998.1 998.2 4.6
02/05:44am 9.5 -4.4 7.4 87 1.0 NW 70 91 38 49 998.4 998.4 4.6
02/05:30am 9.2 -4.7 7.3 88 0.9 NW 70 87 38 47 998.5 998.5 4.6
02/05:00am 8.6 -5.3 6.4 86 1.0 NW 69 87 37 47 998.9 999.0 4.2
02/04:30am 10.0 -3.0 7.4 84 1.2 NW 65 83 35 45 999.7 999.7 3.8
02/04:00am 9.2 -4.2 7.0 86 1.0 NW 67 89 36 48 1000.2 1000.3 3.8
02/03:33am 8.7 -4.3 7.0 89 0.8 NW 65 83 35 45 1000.8 1000.8 3.8
02/03:30am 8.5 -5.0 6.8 89 0.8 NW 67 83 36 45 1000.9 1000.9 3.8
02/03:00am 8.8 -4.8 6.2 84 1.2 NW 67 80 36 43 1001.3 1001.4 3.4
02/02:42am 9.6 -3.4 7.0 84 1.2 NW 65 83 35 45 1001.9 1001.9 3.2
02/02:30am 9.5 -3.2 6.9 84 1.2 NW 63 80 34 43 1002.1 1002.2 3.0
02/02:00am 9.7 -3.5 6.4 80 1.5 NW 65 89 35 48 1002.2 1002.3 3.0
02/01:30am 8.9 -4.3 6.2 83 1.2 NW 65 87 35 47 1003.0 1003.1 3.0
02/01:03am 9.1 -4.0 6.7 85 1.1 NW 65 87 35 47 1003.4 1003.5 3.0
02/01:00am 9.0 -4.1 6.6 85 1.1 NW 65 80 35 43 1003.5 1003.6 3.0
02/12:36am 8.6 -3.9 6.2 85 1.1 NW 61 80 33 43 1003.8 1003.9 3.0
02/12:30am 8.3 -4.2 5.9 85 1.1 NW 61 74 33 40 1004.0 1004.1 3.0
02/12:00am 8.7 -3.5 5.6 81 1.4 NW 59 80 32 43 1004.2 1004.3 2.4
 
Date/Time
EST
Temp
°C
App
Temp
°C
Dew
Point
Rel
Hum
%
Delta-T
°C
Wind Press
QNH
hPa
Press
MSL
hPa
Rain
since 9 am
mm
Dir
 
Spd
km/h
Gust
km/h
Spd
kts
Gust
kts
01/11:30pm 8.4 -4.7 5.2 80 1.4 NW 63 82 34 44 1004.7 1004.8 2.4
01/11:05pm 9.6 -3.0 5.6 76 1.8 NW 61 80 33 43 1004.7 1004.8 2.0
01/11:00pm 9.7 -3.6 5.7 76 1.8 NW 65 80 35 43 1004.8 1004.9 2.0
01/10:33pm 9.4 -3.9 5.6 77 1.7 NW 65 83 35 45 1005.1 1005.2 2.0
01/10:30pm 9.1 -4.7 5.3 77 1.7 NW 67 83 36 45 1005.1 1005.2 2.0
01/10:10pm 9.4 -2.8 5.6 77 1.7 NW 59 78 32 42 1005.3 1005.4 2.0
01/10:00pm 8.9 -3.4 5.3 78 1.6 NW 59 72 32 39 1005.4 1005.5 2.0
01/09:34pm 8.7 -3.7 4.7 76 1.8 NW 59 96 32 52 1005.5 1005.6 2.0
01/09:30pm 9.2 -2.7 5.4 77 1.7 NW 57 72 31 39 1005.5 1005.6 2.0
01/09:00pm 7.9 -5.0 3.9 76 1.7 NW 61 80 33 43 1006.0 1006.1 2.0
01/08:34pm 8.8 -2.2 4.8 76 1.8 NW 52 70 28 38 1006.1 1006.2 2.0
01/08:30pm 9.1 -2.6 5.1 76 1.8 NW 56 70 30 38 1006.1 1006.2 2.0
01/08:01pm 8.2 -3.9 4.2 76 1.7 NW 57 76 31 41 1006.0 1006.1 2.0
01/08:00pm 8.1 -4.4 3.9 75 1.8 NW 59 76 32 41 1005.8 1005.9 2.0
01/07:48pm 9.0 -2.9 4.4 73 2.0 NW 56 82 30 44 1005.9 1006.0 1.8
01/07:30pm 8.9 -3.0 4.3 73 2.0 NW 56 70 30 38 1005.9 1006.0 1.8
01/07:16pm 8.9 -1.9 4.1 72 2.1 NW 50 69 27 37 1005.9 1006.0 1.8
01/07:00pm 8.9 -2.8 3.5 69 2.3 NW 54 69 29 37 1005.7 1005.8 1.8
01/06:30pm 9.1 -2.2 3.7 69 2.3 NW 52 67 28 36 1005.4 1005.5 1.8
01/06:00pm 8.7 -2.1 3.9 72 2.1 NW 50 63 27 34 1005.3 1005.4 1.8
01/05:39pm 8.9 -3.1 3.7 70 2.3 NW 56 76 30 41 1005.2 1005.3 1.8
01/05:30pm 9.1 -2.1 3.9 70 2.3 NW 52 67 28 36 1005.2 1005.3 1.8
01/05:00pm 8.4 -1.6 4.4 76 1.8 WNW 46 57 25 31 1005.2 1005.3 1.8
01/04:30pm 8.9 -2.5 4.7 75 1.9 WNW 54 65 29 35 1005.0 1005.1 1.8
01/04:00pm 7.5 -2.6 3.7 77 1.6 NW 46 63 25 34 1005.1 1005.2 1.8
01/03:39pm 8.8 -2.2 3.0 67 2.5 WNW 50 74 27 40 1004.9 1005.0 1.6
01/03:30pm 9.1 -1.5 3.1 66 2.6 WNW 48 59 26 32 1005.0 1005.1 1.6
01/03:00pm 9.0 -3.1 4.4 73 2.0 WNW 57 69 31 37 1004.6 1004.7 1.6
01/02:38pm 7.7 -2.8 3.7 76 1.7 WNW 48 67 26 36 1004.5 1004.6 1.6
01/02:30pm 7.0 -5.7 2.9 75 1.7 WNW 59 83 32 45 1004.4 1004.5 1.6
01/02:26pm 7.1 -7.1 3.0 75 1.7 WNW 67 83 36 45 1004.5 1004.6 1.6
01/02:21pm 7.3 -5.8 2.8 73 1.9 WNW 61 83 33 45 1004.1 1004.2 1.6
01/02:03pm 9.7 -2.0 3.2 64 2.8 WNW 54 72 29 39 1004.1 1004.2 1.2
01/02:00pm 9.5 -2.2 3.3 65 2.7 WNW 54 65 29 35 1004.1 1004.2 1.2
01/01:31pm 8.7 -3.5 3.7 71 2.2 WNW 57 76 31 41 1004.0 1004.1 1.2
01/01:30pm 8.3 -4.4 3.2 70 2.2 WNW 59 76 32 41 1003.9 1004.0 1.2
01/01:00pm 9.4 -3.4 2.7 63 2.9 WNW 59 72 32 39 1004.0 1004.1 1.2
01/12:42pm 9.5 -2.8 3.3 65 2.7 WNW 57 76 31 41 1004.0 1004.1 1.2
01/12:30pm 9.3 -3.0 2.9 64 2.7 WNW 57 70 31 38 1003.9 1004.0 1.2
01/12:00pm 8.9 -3.6 4.1 72 2.1 WNW 59 72 32 39 1003.8 1003.9 1.2
01/11:31am 8.2 -2.6 4.2 76 1.7 WNW 50 69 27 37 1003.8 1003.9 1.2
01/11:30am 8.4 -2.3 4.6 77 1.7 WNW 50 63 27 34 1003.9 1004.0 1.2
01/11:10am 6.1 -4.2 2.6 78 1.4 WNW 46 67 25 36 1003.9 1004.0 1.2
01/11:05am 5.8 -6.4 2.4 79 1.4 WNW 56 78 30 42 1004.1 1004.2 1.2
01/11:00am 5.3 -8.0 1.8 78 1.4 WNW 61 82 33 44 1004.2 1004.3 1.2
01/10:30am 8.5 -2.8 3.6 71 2.1 W 52 70 28 38 1003.5 1003.6 0.2
01/10:00am 8.8 -2.3 4.4 74 2.0 W 52 65 28 35 1002.9 1003.0 0.2
01/09:47am 8.2 -2.6 3.9 74 1.9 W 50 63 27 34 1002.8 1002.9 0.2
01/09:30am 7.4 -1.0 3.8 78 1.5 WNW 37 50 20 27 1002.7 1002.8 0.2
01/09:19am 6.9 -2.9 3.5 79 1.4 WNW 44 59 24 32 1002.7 1002.8 0.2
01/09:00am 6.2 -6.2 2.5 77 1.5 W 57 76 31 41 1002.5 1002.6 24.2
01/08:39am 7.2 -5.1 3.3 76 1.6 W 57 80 31 43 1001.5 1001.6 24.2
01/08:30am 7.4 -4.5 4.2 80 1.4 W 56 69 30 37 1001.6 1001.7 24.2
01/08:00am 6.0 -6.7 2.8 80 1.3 W 59 83 32 45 1001.7 1001.8 24.2
01/07:38am 8.1 -4.0 4.1 76 1.7 W 57 80 31 43 1000.3 1000.4 24.0
01/07:30am 8.2 -3.9 4.0 75 1.8 W 57 70 31 38 1000.2 1000.3 24.0
01/07:02am 8.2 -3.2 5.1 81 1.4 W 54 72 29 39 999.4 999.5 24.0
01/07:00am 8.2 -2.8 5.1 81 1.4 W 52 63 28 34 999.5 999.6 24.0
01/06:30am 7.9 -3.8 5.4 84 1.1 WNW 56 67 30 36 999.0 999.0 24.0
01/06:00am 6.6 -5.7 5.1 90 0.7 WNW 59 69 32 37 998.8 998.9 23.8
01/05:39am 7.2 -5.4 5.5 89 0.8 W 61 80 33 43 998.5 998.5 23.8
01/05:30am 7.6 -4.5 6.1 90 0.7 WNW 59 69 32 37 997.9 997.9 23.8
01/05:00am 6.8 -5.0 5.9 94 0.4 W 57 76 31 41 997.6 997.7 23.8
01/04:59am 7.2 -4.5 6.3 94 0.4 W 57 76 31 41 997.6 997.6 23.8
01/04:30am 7.6 -3.7 7.0 96 0.3 W 56 70 30 38 996.8 996.8 23.6
01/04:00am 8.5 -4.3 8.2 98 0.1 WNW 65 82 35 44 996.1 996.2 23.2
01/03:32am 7.6 -6.7 7.3 98 0.1 WNW 72 91 39 49 996.3 996.3 22.8
01/03:30am 7.5 -7.2 7.2 98 0.1 WNW 74 91 40 49 996.3 996.3 22.8
01/03:07am 8.2 -5.6 7.9 98 0.1 WNW 70 93 38 50 995.6 995.6 22.0
01/03:00am 8.2 -5.3 8.1 99 0.0 WNW 69 85 37 46 995.7 995.8 22.0
01/02:50am 9.1 -1.9 9.0 99 0.0 NNW 57 95 31 51 995.3 995.3 21.8
01/02:49am 9.6 -0.7 9.5 99 0.0 NNW 54 95 29 51 995.2 995.2 21.8
01/02:30am 8.4 -1.5 8.3 99 0.0 NNW 50 72 27 39 995.5 995.5 21.6
01/02:00am 8.1 -1.1 8.0 99 0.0 NNW 46 67 25 36 996.7 996.8 17.8
01/01:30am 7.5 -3.0 7.2 98 0.1 NNW 52 78 28 42 997.3 997.3 15.2
01/01:00am 7.4 -2.4 7.1 98 0.1 NNW 48 74 26 40 997.7 997.8 12.8
01/12:30am 7.6 -3.7 7.3 98 0.1 NNW 56 74 30 40 998.6 998.6 11.0
01/12:00am 7.6 -2.9 7.3 98 0.1 NNW 52 82 28 44 999.0 999.1 9.4
 
Date/Time
EST
Temp
°C
App
Temp
°C
Dew
Point
Rel
Hum
%
Delta-T
°C
Wind Press
QNH
hPa
Press
MSL
hPa
Rain
since 9 am
mm
Dir
 
Spd
km/h
Gust
km/h
Spd
kts
Gust
kts
31/11:53pm 7.5 -1.9 7.2 98 0.1 NNW 46 76 25 41 999.1 999.1 9.0
31/11:30pm 7.6 0.0 7.5 99 0.0 N 37 56 20 30 999.8 999.9 7.6
31/11:00pm 8.0 0.1 7.9 99 0.0 NNW 39 63 21 34 1000.7 1000.8 6.4
31/10:42pm 7.8 -0.9 7.5 98 0.1 NNW 43 61 23 33 1001.3 1001.4 5.0
31/10:30pm 7.8 -0.9 7.5 98 0.1 N 43 59 23 32 1001.6 1001.7 4.6
31/10:03pm 7.6 -0.5 7.2 97 0.2 N 39 57 21 31 1002.4 1002.5 4.0
31/10:00pm 7.5 -0.6 7.1 97 0.2 N 39 54 21 29 1002.2 1002.3 4.0
31/09:30pm 7.6 0.3 7.2 97 0.2 NNW 35 54 19 29 1002.9 1003.0 3.8
31/09:10pm 7.3 0.5 6.7 96 0.3 N 32 50 17 27 1003.7 1003.8 3.4
31/09:00pm 7.4 0.0 6.7 95 0.3 N 35 48 19 26 1004.0 1004.1 3.2
31/08:30pm 7.9 -1.0 7.0 94 0.4 NNW 43 63 23 34 1004.7 1004.8 2.8
31/08:21pm 7.8 0.8 6.7 93 0.5 NNW 33 63 18 34 1005.0 1005.1 2.8
31/08:00pm 8.1 0.3 6.7 91 0.6 NNW 37 54 20 29 1005.2 1005.3 2.0
31/07:39pm 8.0 0.5 6.1 88 0.9 N 35 69 19 37 1005.6 1005.7 2.0
31/07:30pm 8.8 -0.7 6.6 86 1.0 NNW 46 70 25 38 1005.8 1005.9 1.2
31/07:01pm 9.7 1.0 7.6 87 1.0 NNW 43 72 23 39 1006.1 1006.2 1.2
31/07:00pm 9.4 0.4 7.2 86 1.0 NNW 44 72 24 39 1006.0 1006.1 1.2
31/06:34pm 9.0 -2.0 7.0 87 0.9 NW 54 72 29 39 1006.1 1006.2 1.2
31/06:30pm 9.0 -2.3 7.0 87 0.9 NW 56 69 30 37 1006.2 1006.3 1.2
31/06:00pm 8.6 -2.8 6.6 87 0.9 NNW 56 72 30 39 1006.6 1006.7 1.2
31/05:47pm 9.1 -2.9 6.7 85 1.1 NW 59 85 32 46 1006.9 1007.0 0.8
31/05:30pm 8.8 -2.9 6.4 85 1.1 NW 57 72 31 39 1007.1 1007.2 0.6
31/05:06pm 8.9 -2.6 6.2 83 1.2 NNW 56 74 30 40 1007.4 1007.5 0.6
31/05:00pm 9.2 -2.4 6.5 83 1.3 NW 57 74 31 40 1007.4 1007.5 0.6
31/04:34pm 9.6 -1.8 6.7 82 1.4 NW 56 74 30 40 1007.6 1007.7 0.6
31/04:30pm 9.5 -2.1 6.6 82 1.4 NW 57 74 31 40 1007.7 1007.8 0.6
31/04:00pm 9.1 -3.8 6.0 81 1.4 NW 63 83 34 45 1007.9 1008.0 0.4
31/03:49pm 9.6 -1.9 6.3 80 1.5 NW 56 74 30 40 1008.1 1008.2 0.4
31/03:30pm 9.4 0.3 6.7 83 1.3 NNW 44 61 24 33 1008.5 1008.6 0.4
31/03:15pm 9.0 0.0 6.4 84 1.2 NNW 43 61 23 33 1008.8 1008.9 0.4
31/03:00pm 8.5 -1.5 6.0 84 1.1 NNW 48 63 26 34 1009.2 1009.3 0.4
31/02:38pm 9.7 -1.2 5.7 76 1.8 NW 52 76 28 41 1009.2 1009.3 0.2
31/02:30pm 9.7 -1.5 5.7 76 1.8 NW 54 69 29 37 1009.3 1009.4 0.2
31/02:06pm 9.5 -1.3 5.9 78 1.7 NW 52 72 28 39 1009.4 1009.5 0.2
31/02:00pm 10.3 -0.4 6.6 78 1.7 NW 52 67 28 36 1009.5 1009.6 0.2
31/01:31pm 8.8 -1.8 5.2 78 1.6 NW 50 69 27 37 1010.1 1010.2 0.0
31/01:30pm 9.0 -1.9 5.4 78 1.6 NW 52 69 28 37 1010.1 1010.2 0.0
31/01:00pm 9.8 -1.5 5.4 74 2.0 NW 54 70 29 38 1010.5 1010.6 0.0
31/12:30pm 9.4 0.0 5.6 77 1.7 NW 44 56 24 30 1011.1 1011.2 0.0
31/12:02pm 8.7 -2.8 4.5 75 1.9 NW 54 72 29 39 1011.4 1011.5 0.0
31/12:00pm 9.1 -2.0 4.7 74 2.0 NW 52 67 28 36 1011.5 1011.6 0.0
31/11:46am 9.6 0.3 5.0 73 2.1 NW 43 61 23 33 1011.7 1011.8 0.0
31/11:30am 9.9 0.4 5.1 72 2.2 NW 44 56 24 30 1012.1 1012.2 0.0
31/11:09am 9.8 0.9 5.2 73 2.1 NW 41 59 22 32 1012.3 1012.4 0.0
31/11:00am 10.4 2.0 5.8 73 2.1 NW 39 48 21 26 1012.4 1012.5 0.0
31/10:30am 8.8 -1.2 4.4 74 1.9 NW 46 65 25 35 1012.6 1012.7 0.0
31/10:16am 8.4 -1.6 4.2 75 1.8 NW 46 67 25 36 1012.7 1012.8 0.0
31/10:00am 9.5 0.3 5.3 75 1.9 NW 43 56 23 30 1012.7 1012.8 0.0
31/09:30am 8.9 1.5 4.9 76 1.8 NW 33 44 18 24 1012.8 1012.9 0.0
31/09:00am 8.4 -1.2 4.6 77 1.7 NW 44 54 24 29 1013.0 1013.1 15.6
31/08:30am 7.8 -0.8 4.7 81 1.4 WNW 39 50 21 27 1013.0 1013.1 15.6
31/08:11am 7.3 -1.4 3.9 79 1.5 WNW 39 50 21 27 1013.2 1013.3 15.6
31/08:00am 7.3 -2.2 4.1 80 1.4 NW 43 67 23 36 1013.0 1013.1 15.6
31/07:51am 7.8 -1.8 4.2 78 1.6 WNW 44 67 24 36 1012.9 1013.0 15.6
31/07:30am 7.8 -1.2 4.4 79 1.5 WNW 41 50 22 27 1012.8 1012.9 15.6
31/07:00am 7.4 -0.9 4.4 81 1.3 NW 37 48 20 26 1012.7 1012.8 15.4
31/06:50am 7.3 -1.4 4.1 80 1.4 WNW 39 57 21 31 1012.6 1012.7 15.4
31/06:30am 8.1 -0.9 4.7 79 1.5 WNW 41 52 22 28 1012.6 1012.7 15.4

Other Formats:

Comma delimited format used in spreadsheet applications
http://www.bom.gov.au/fwo/IDT60801/IDT60801.95961.axf

JavaScript Object Notation format (JSON) in row-major order
http://www.bom.gov.au/fwo/IDT60801/IDT60801.95961.json